Aviation Digital Data Service (ADDS)

Output produced by METARs form (0346 UTC 28 April 2015)
found at http://www.aviationweather.gov/adds/metars/
 
KSBY 280254Z AUTO 31008KT 10SM CLR 11/02 A2981 RMK AO2 SLP096 T01060017 51010
KSBY 272344Z 2800/2824 30006KT P6SM BKN050 
     TEMPO 2800/2803 31010G15KT 
     FM280500 32010KT P6SM SKC 
     FM281400 33010G18KT P6SM FEW090 
     FM282100 33010KT P6SM FEW250